createdAt,value
2022-07-29T00:01:19.185Z,98793.93
2022-07-29T00:03:46.814Z,98788.05
2022-07-29T00:06:13.850Z,98789.21
2022-07-29T00:08:40.761Z,98787.89
2022-07-29T00:11:07.640Z,98791.80
2022-07-29T00:13:34.917Z,98785.75
2022-07-29T00:16:04.540Z,98783.36
2022-07-29T00:18:32.953Z,98782.20
2022-07-29T00:21:00.336Z,98777.33
2022-07-29T00:23:27.203Z,98778.84
2022-07-29T00:25:54.075Z,98776.07
2022-07-29T00:28:20.993Z,98776.20
2022-07-29T00:30:47.906Z,98772.97
2022-07-29T00:33:14.828Z,98774.79
2022-07-29T00:35:44.938Z,98775.73
2022-07-29T00:38:18.312Z,98773.32
2022-07-29T00:40:45.810Z,98771.65
2022-07-29T00:43:14.810Z,98769.88
2022-07-29T00:45:43.031Z,98766.98
2022-07-29T00:48:10.649Z,98764.61
2022-07-29T00:50:38.338Z,98766.56
2022-07-29T00:53:07.902Z,98768.52
2022-07-29T00:55:35.557Z,98766.09
2022-07-29T00:58:02.718Z,98762.21
2022-07-29T01:00:30.541Z,98763.65
2022-07-29T01:02:57.549Z,98764.33
2022-07-29T01:05:50.788Z,98757.66
2022-07-29T01:08:16.432Z,98757.11
2022-07-29T01:10:45.622Z,98759.74
2022-07-29T01:13:14.844Z,98755.81
2022-07-29T01:15:48.833Z,98754.02
2022-07-29T01:18:23.764Z,98751.80
2022-07-29T01:21:14.306Z,98756.34
2022-07-29T01:24:01.093Z,98758.61
2022-07-29T01:26:30.733Z,98754.11
2022-07-29T01:29:18.718Z,98755.10
2022-07-29T01:31:59.116Z,98753.20
2022-07-29T01:34:40.725Z,98751.13
2022-07-29T01:37:19.748Z,98745.44
2022-07-29T01:39:50.513Z,98746.87
2022-07-29T01:42:36.737Z,98741.17
2022-07-29T01:45:09.652Z,98740.98
2022-07-29T01:47:44.574Z,98738.84
2022-07-29T01:50:14.102Z,98738.73
2022-07-29T01:52:47.787Z,98738.14
2022-07-29T01:55:16.659Z,98737.00
2022-07-29T01:57:45.791Z,98734.64
2022-07-29T02:00:14.034Z,98739.58
2022-07-29T02:02:45.374Z,98733.94
2022-07-29T02:05:15.612Z,98728.77
2022-07-29T02:07:44.434Z,98724.89
2022-07-29T02:10:13.781Z,98718.20
2022-07-29T02:12:43.607Z,98720.64
2022-07-29T02:15:18.222Z,98722.20
2022-07-29T02:17:51.172Z,98724.19
2022-07-29T02:20:18.152Z,98723.86
2022-07-29T02:22:47.660Z,98722.27
2022-07-29T02:25:16.917Z,98714.61
2022-07-29T02:27:45.567Z,98711.46
2022-07-29T02:30:13.955Z,98707.17
2022-07-29T02:32:43.342Z,98706.88
2022-07-29T02:35:13.458Z,98707.20
2022-07-29T02:37:41.191Z,98706.41
2022-07-29T02:40:12.183Z,98705.22
2022-07-29T02:42:42.293Z,98712.41
2022-07-29T02:45:10.698Z,98713.35
2022-07-29T02:47:44.859Z,98714.55
2022-07-29T02:50:19.143Z,98717.29
2022-07-29T02:52:53.610Z,98718.13
2022-07-29T02:55:42.559Z,98719.19
2022-07-29T02:58:14.660Z,98717.41
2022-07-29T03:00:42.330Z,98716.20
2022-07-29T03:03:14.251Z,98713.63
2022-07-29T03:05:42.033Z,98708.38
2022-07-29T03:08:12.354Z,98702.80
2022-07-29T03:10:43.990Z,98704.36
2022-07-29T03:13:11.639Z,98697.83
2022-07-29T03:15:39.238Z,98696.68
2022-07-29T03:18:07.758Z,98702.12
2022-07-29T03:20:34.966Z,98699.17
2022-07-29T03:23:01.842Z,98699.29
2022-07-29T03:25:28.714Z,98699.50
2022-07-29T03:27:55.595Z,98694.02
2022-07-29T03:30:22.601Z,98691.70
2022-07-29T03:32:52.264Z,98692.60
2022-07-29T03:35:35.333Z,98692.13
2022-07-29T03:38:02.396Z,98699.20
2022-07-29T03:40:39.354Z,98701.02
2022-07-29T03:43:09.693Z,98698.20
2022-07-29T03:45:37.435Z,98694.55
2022-07-29T03:48:09.653Z,98695.31
2022-07-29T03:50:37.723Z,98700.52
2022-07-29T03:53:05.134Z,98698.60
2022-07-29T03:55:38.754Z,98702.79
2022-07-29T03:58:07.748Z,98703.23
2022-07-29T04:00:36.100Z,98706.80
2022-07-29T04:03:05.173Z,98702.45
2022-07-29T04:05:37.946Z,98696.43
2022-07-29T04:08:05.049Z,98699.63
2022-07-29T04:10:34.192Z,98698.08
2022-07-29T04:13:02.773Z,98696.59
2022-07-29T04:15:31.643Z,98693.14
2022-07-29T04:17:59.930Z,98695.90
2022-07-29T04:20:26.922Z,98693.72
2022-07-29T04:22:53.851Z,98693.90
2022-07-29T04:25:21.041Z,98695.94
2022-07-29T04:28:04.268Z,98696.45
2022-07-29T04:30:32.546Z,98699.23
2022-07-29T04:33:01.907Z,98697.89
2022-07-29T04:35:30.493Z,98701.48
2022-07-29T04:38:06.857Z,98697.38
2022-07-29T04:40:34.885Z,98693.02
2022-07-29T04:43:05.728Z,98693.96
2022-07-29T04:45:33.011Z,98694.09
2022-07-29T04:47:59.866Z,98691.48
2022-07-29T04:50:26.671Z,98695.63
2022-07-29T04:52:54.285Z,98688.66
2022-07-29T04:55:21.164Z,98689.41
2022-07-29T04:57:47.936Z,98682.02
2022-07-29T05:00:16.010Z,98678.70
2022-07-29T05:02:42.882Z,98671.88
2022-07-29T05:05:10.010Z,98678.27
2022-07-29T05:07:36.922Z,98675.02
2022-07-29T05:10:04.737Z,98674.23
2022-07-29T05:12:31.546Z,98672.31
2022-07-29T05:14:58.386Z,98672.65
2022-07-29T05:17:25.183Z,98674.44
2022-07-29T05:19:52.497Z,98673.02
2022-07-29T05:22:20.403Z,98672.05
2022-07-29T05:24:47.750Z,98670.85
2022-07-29T05:27:14.847Z,98665.98
2022-07-29T05:29:43.737Z,98666.28
2022-07-29T05:32:12.954Z,98670.36
2022-07-29T05:34:50.153Z,98673.11
2022-07-29T05:37:20.221Z,98674.14
2022-07-29T05:39:50.563Z,98679.56
2022-07-29T05:42:24.525Z,98675.82
2022-07-29T05:44:51.869Z,98681.13
2022-07-29T05:47:18.808Z,98681.80
2022-07-29T05:49:46.374Z,98686.46
2022-07-29T05:52:14.371Z,98688.08
2022-07-29T05:54:41.739Z,98688.80
2022-07-29T05:57:09.103Z,98689.55
2022-07-29T05:59:38.158Z,98689.69
2022-07-29T06:02:07.131Z,98686.36
2022-07-29T06:04:34.774Z,98681.48
2022-07-29T06:07:02.907Z,98677.53
2022-07-29T06:09:29.980Z,98678.27
2022-07-29T06:11:57.260Z,98670.77
2022-07-29T06:14:24.053Z,98663.85
2022-07-29T06:16:51.003Z,98669.98
2022-07-29T06:19:17.916Z,98669.52
2022-07-29T06:21:45.454Z,98675.38
2022-07-29T06:24:13.997Z,98676.21
2022-07-29T06:26:42.046Z,98674.86
2022-07-29T06:29:11.694Z,98675.74
2022-07-29T06:31:39.211Z,98683.79
2022-07-29T06:34:06.147Z,98685.84
2022-07-29T06:36:36.749Z,98685.80
2022-07-29T06:39:07.329Z,98685.88
2022-07-29T06:41:35.473Z,98686.13
2022-07-29T06:44:07.256Z,98680.72
2022-07-29T06:46:34.102Z,98677.91
2022-07-29T06:49:02.788Z,98682.34
2022-07-29T06:51:30.039Z,98681.48
2022-07-29T06:54:02.161Z,98678.08
2022-07-29T06:56:31.189Z,98679.54
2022-07-29T06:58:58.397Z,98679.64
2022-07-29T07:01:26.346Z,98677.89
2022-07-29T07:03:53.246Z,98675.73
2022-07-29T07:06:20.048Z,98675.86
2022-07-29T07:08:46.935Z,98672.45
2022-07-29T07:11:13.764Z,98673.77
2022-07-29T07:13:40.608Z,98673.90
2022-07-29T07:16:07.390Z,98667.89
2022-07-29T07:18:34.246Z,98665.79
2022-07-29T07:21:01.233Z,98666.20
2022-07-29T07:23:28.110Z,98662.70
2022-07-29T07:25:54.979Z,98660.73
2022-07-29T07:28:24.475Z,98664.80
2022-07-29T07:30:53.052Z,98661.38
2022-07-29T07:33:20.648Z,98665.75
2022-07-29T07:35:47.994Z,98670.98
2022-07-29T07:38:15.011Z,98674.81
2022-07-29T07:40:42.531Z,98673.00
2022-07-29T07:43:09.445Z,98673.38
2022-07-29T07:45:38.568Z,98666.33
2022-07-29T07:48:06.087Z,98672.87
2022-07-29T07:50:33.001Z,98678.75
2022-07-29T07:53:00.661Z,98674.50
2022-07-29T07:55:27.737Z,98672.97
2022-07-29T07:57:55.772Z,98663.02
2022-07-29T08:00:23.800Z,98666.19
2022-07-29T08:02:51.828Z,98663.33
2022-07-29T08:05:19.400Z,98663.36
2022-07-29T08:07:47.619Z,98664.81
2022-07-29T08:10:36.628Z,98660.69
2022-07-29T08:13:06.260Z,98659.59
2022-07-29T08:15:34.040Z,98656.64
2022-07-29T08:18:05.230Z,98659.06
2022-07-29T08:20:36.864Z,98666.52
2022-07-29T08:23:05.751Z,98667.27
2022-07-29T08:25:34.704Z,98669.16
2022-07-29T08:28:05.985Z,98668.01
2022-07-29T08:30:33.522Z,98663.01
2022-07-29T08:33:00.770Z,98665.24
2022-07-29T08:35:31.018Z,98659.63
2022-07-29T08:38:00.244Z,98659.42
2022-07-29T08:40:32.443Z,98656.45
2022-07-29T08:43:06.457Z,98653.62
2022-07-29T08:45:48.165Z,98652.98
2022-07-29T08:48:19.998Z,98651.73
2022-07-29T08:50:49.159Z,98656.92
2022-07-29T08:53:17.654Z,98655.69
2022-07-29T08:55:46.781Z,98653.80
2022-07-29T08:58:15.703Z,98655.52
2022-07-29T09:00:46.069Z,98654.02
2022-07-29T09:03:16.990Z,98650.10
2022-07-29T09:05:48.081Z,98643.00
2022-07-29T09:08:16.877Z,98645.83
2022-07-29T09:10:44.876Z,98647.83
2022-07-29T09:13:11.753Z,98649.46
2022-07-29T09:15:38.575Z,98648.70
2022-07-29T09:18:05.398Z,98645.24
2022-07-29T09:20:48.044Z,98647.14
2022-07-29T09:23:24.135Z,98648.31
2022-07-29T09:25:51.737Z,98643.08
2022-07-29T09:28:19.067Z,98647.89
2022-07-29T09:30:54.830Z,98644.63
2022-07-29T09:33:23.422Z,98639.33
2022-07-29T09:36:07.126Z,98640.61
2022-07-29T09:38:36.266Z,98633.52
2022-07-29T09:41:06.919Z,98630.33
2022-07-29T09:43:35.079Z,98624.80
2022-07-29T09:46:17.734Z,98614.98
2022-07-29T09:48:45.301Z,98615.91
2022-07-29T09:51:24.141Z,98617.17
2022-07-29T09:53:55.484Z,98613.83
2022-07-29T09:56:40.610Z,98611.09
2022-07-29T09:59:09.187Z,98612.48
2022-07-29T10:01:37.051Z,98604.89
2022-07-29T10:04:04.155Z,98600.16
2022-07-29T10:06:30.988Z,98595.89
2022-07-29T10:09:13.313Z,98590.38
2022-07-29T10:11:49.642Z,98594.86
2022-07-29T10:14:17.322Z,98593.74
2022-07-29T10:16:44.464Z,98592.42
2022-07-29T10:19:11.770Z,98593.64
2022-07-29T10:21:40.845Z,98596.49
2022-07-29T10:24:15.050Z,98589.24
2022-07-29T10:26:43.259Z,98580.45
2022-07-29T10:29:10.615Z,98588.86
2022-07-29T10:31:56.352Z,98588.20
2022-07-29T10:34:46.314Z,98587.46
2022-07-29T10:37:20.653Z,98589.24
2022-07-29T10:39:58.864Z,98589.63
2022-07-29T10:42:34.359Z,98580.20
2022-07-29T10:45:04.622Z,98578.42
2022-07-29T10:47:31.912Z,98579.66
2022-07-29T10:50:01.865Z,98577.80
2022-07-29T10:52:55.822Z,98575.37
2022-07-29T10:55:43.869Z,98576.08
2022-07-29T10:58:13.624Z,98575.08
2022-07-29T11:00:40.577Z,98576.75
2022-07-29T11:03:10.511Z,98579.50
2022-07-29T11:05:55.738Z,98577.32
2022-07-29T11:08:26.377Z,98574.85
2022-07-29T11:11:22.443Z,98572.83
2022-07-29T11:13:57.167Z,98573.67
2022-07-29T11:16:25.302Z,98574.08
2022-07-29T11:19:16.440Z,98573.95
2022-07-29T11:21:55.310Z,98575.81
2022-07-29T11:24:32.122Z,98564.23
2022-07-29T11:27:18.249Z,98563.79
2022-07-29T11:30:03.193Z,98561.23
2022-07-29T11:32:40.158Z,98556.52
2022-07-29T11:35:38.432Z,98548.02
2022-07-29T11:38:23.452Z,98542.31
2022-07-29T11:41:23.673Z,98541.09
2022-07-29T11:43:53.485Z,98542.91
2022-07-29T11:46:53.886Z,98550.55
2022-07-29T11:49:32.312Z,98549.88
2022-07-29T11:52:03.257Z,98545.77
2022-07-29T11:54:38.878Z,98547.61
2022-07-29T12:00:12.637Z,98539.05
2022-07-29T12:02:48.677Z,98545.27
2022-07-29T12:05:22.282Z,98545.07
2022-07-29T12:08:08.227Z,98545.70
2022-07-29T12:10:42.212Z,98543.10
2022-07-29T12:13:10.245Z,98541.35
2022-07-29T12:15:47.015Z,98542.77
2022-07-29T12:18:16.141Z,98538.05
2022-07-29T12:20:46.043Z,98533.20
2022-07-29T12:23:13.549Z,98524.22
2022-07-29T12:25:49.628Z,98524.45
2022-07-29T12:28:26.628Z,98523.29
2022-07-29T12:30:54.031Z,98515.69
2022-07-29T12:33:23.713Z,98521.63
2022-07-29T12:36:17.609Z,98524.42
2022-07-29T12:38:45.771Z,98524.08
2022-07-29T12:41:13.817Z,98521.61
2022-07-29T12:43:53.844Z,98515.74
2022-07-29T12:46:21.151Z,98512.26
2022-07-29T12:48:56.318Z,98507.17
2022-07-29T12:51:40.081Z,98503.79
2022-07-29T12:54:12.510Z,98496.60
2022-07-29T12:56:44.321Z,98503.16
2022-07-29T12:59:14.116Z,98502.79
2022-07-29T13:01:40.988Z,98502.20
2022-07-29T13:04:08.076Z,98495.68
2022-07-29T13:06:36.622Z,98495.66
2022-07-29T13:09:05.644Z,98496.21
2022-07-29T13:11:36.595Z,98494.66
2022-07-29T13:14:06.808Z,98497.39
2022-07-29T13:16:34.296Z,98498.91
2022-07-29T13:19:11.740Z,98502.75
2022-07-29T13:21:40.237Z,98506.34
2022-07-29T13:24:08.587Z,98501.45
2022-07-29T13:26:35.716Z,98492.20
2022-07-29T13:29:02.525Z,98486.36
2022-07-29T13:31:29.436Z,98485.98
2022-07-29T13:33:57.405Z,98480.23
2022-07-29T13:36:24.440Z,98473.56
2022-07-29T13:38:51.325Z,98472.70
2022-07-29T13:41:18.180Z,98461.92
2022-07-29T13:43:44.997Z,98460.02
2022-07-29T13:46:11.818Z,98452.77
2022-07-29T13:48:38.706Z,98447.95
2022-07-29T13:51:05.582Z,98450.09
2022-07-29T13:53:32.473Z,98441.20
2022-07-29T13:55:59.552Z,98439.77
2022-07-29T13:58:26.604Z,98436.54
2022-07-29T14:00:53.512Z,98433.21
2022-07-29T14:03:23.641Z,98430.05
2022-07-29T14:05:50.523Z,98427.81
2022-07-29T14:08:17.333Z,98420.54
2022-07-29T14:10:44.251Z,98417.48
2022-07-29T14:13:25.148Z,98422.11
2022-07-29T14:15:54.032Z,98413.25
2022-07-29T14:18:20.908Z,98414.10
2022-07-29T14:20:47.827Z,98409.98
2022-07-29T14:23:16.267Z,98410.44
2022-07-29T14:25:44.564Z,98410.68
2022-07-29T14:28:12.811Z,98416.90
2022-07-29T14:30:41.682Z,98419.98
2022-07-29T14:33:09.174Z,98418.69
2022-07-29T14:35:35.964Z,98420.69
2022-07-29T14:38:02.750Z,98420.89
2022-07-29T14:40:29.584Z,98414.65
2022-07-29T14:42:56.599Z,98412.45
2022-07-29T14:45:24.051Z,98409.54
2022-07-29T14:47:53.417Z,98409.68
2022-07-29T14:50:31.626Z,98408.98
2022-07-29T14:53:00.218Z,98405.38
2022-07-29T14:55:27.704Z,98403.41
2022-07-29T14:58:00.722Z,98400.04
2022-07-29T15:00:34.666Z,98398.93
2022-07-29T15:03:02.878Z,98394.54
2022-07-29T15:05:31.476Z,98400.89
2022-07-29T15:07:59.922Z,98398.46
2022-07-29T15:10:42.346Z,98392.36
2022-07-29T15:13:09.650Z,98394.87
2022-07-29T15:15:36.606Z,98399.60
2022-07-29T15:18:03.983Z,98399.17
2022-07-29T15:20:30.964Z,98402.14
2022-07-29T15:22:57.799Z,98417.48
2022-07-29T15:25:25.673Z,98414.97
2022-07-29T15:27:59.189Z,98418.89
2022-07-29T15:30:33.371Z,98424.20
2022-07-29T15:33:02.682Z,98429.70
2022-07-29T15:35:29.741Z,98432.40
2022-07-29T15:37:56.554Z,98433.52
2022-07-29T15:40:23.406Z,98435.77
2022-07-29T15:42:50.606Z,98437.71
2022-07-29T15:45:17.425Z,98436.77
2022-07-29T15:47:44.662Z,98438.10
2022-07-29T15:50:15.960Z,98433.52
2022-07-29T15:52:43.766Z,98431.13
2022-07-29T15:55:10.787Z,98433.61
2022-07-29T15:57:41.020Z,98433.93
2022-07-29T16:00:08.747Z,98432.67
2022-07-29T16:02:35.920Z,98431.71
2022-07-29T16:05:02.708Z,98436.41
2022-07-29T16:07:31.381Z,98438.98
2022-07-29T16:09:59.434Z,98448.77
2022-07-29T16:12:26.466Z,98447.41
2022-07-29T16:14:53.380Z,98446.52
2022-07-29T16:17:20.354Z,98447.83
2022-07-29T16:19:47.472Z,98447.40
2022-07-29T16:22:14.609Z,98445.91
2022-07-29T16:24:41.806Z,98441.63
2022-07-29T16:27:09.320Z,98442.70
2022-07-29T16:29:37.426Z,98438.01
2022-07-29T16:32:06.332Z,98442.99
2022-07-29T16:34:33.726Z,98445.05
2022-07-29T16:37:00.942Z,98455.09
2022-07-29T16:39:27.979Z,98459.65
2022-07-29T16:41:58.312Z,98465.58
2022-07-29T16:44:27.513Z,98474.13
2022-07-29T16:46:56.081Z,98474.37
2022-07-29T16:49:25.962Z,98483.43
2022-07-29T16:51:53.931Z,98483.63
2022-07-29T16:54:21.356Z,98487.05
2022-07-29T16:56:48.191Z,98484.58
2022-07-29T16:59:15.034Z,98476.16
2022-07-29T17:01:41.934Z,98468.08
2022-07-29T17:04:09.351Z,98463.20
2022-07-29T17:06:39.074Z,98460.29
2022-07-29T17:09:07.739Z,98460.70
2022-07-29T17:11:53.593Z,98460.10
2022-07-29T17:14:25.625Z,98457.85
2022-07-29T17:17:00.574Z,98459.55
2022-07-29T17:19:31.918Z,98459.98
2022-07-29T17:22:08.958Z,98463.98
2022-07-29T17:24:38.923Z,98467.90
2022-07-29T17:27:07.146Z,98468.32
2022-07-29T17:29:35.419Z,98470.13
2022-07-29T17:32:02.304Z,98472.96
2022-07-29T17:34:29.197Z,98470.60
2022-07-29T17:36:56.724Z,98470.82
2022-07-29T17:39:24.284Z,98472.25
2022-07-29T17:41:51.106Z,98476.02
2022-07-29T17:44:18.459Z,98475.63
2022-07-29T17:46:45.419Z,98478.95
2022-07-29T17:49:12.415Z,98483.36
2022-07-29T17:51:39.328Z,98482.54
2022-07-29T17:54:06.174Z,98482.98
2022-07-29T17:56:33.122Z,98492.34
2022-07-29T17:59:01.632Z,98495.07
2022-07-29T18:01:28.898Z,98499.20
2022-07-29T18:03:59.787Z,98504.21
2022-07-29T18:06:27.159Z,98509.98
2022-07-29T18:08:55.348Z,98517.38
2022-07-29T18:11:23.009Z,98521.58
2022-07-29T18:13:49.814Z,98523.11
2022-07-29T18:16:16.722Z,98523.88
2022-07-29T18:18:45.056Z,98519.77
2022-07-29T18:21:12.459Z,98517.71
2022-07-29T18:23:39.368Z,98512.43
2022-07-29T18:26:06.215Z,98507.66
2022-07-29T18:28:33.308Z,98506.69
2022-07-29T18:31:01.440Z,98507.33
2022-07-29T18:33:28.436Z,98507.84
2022-07-29T18:36:10.480Z,98506.17
2022-07-29T18:38:39.009Z,98505.13
2022-07-29T18:41:05.797Z,98500.17
2022-07-29T18:43:32.659Z,98493.61
2022-07-29T18:45:59.486Z,98495.51
2022-07-29T18:48:26.307Z,98501.24
2022-07-29T18:50:53.390Z,98501.48
2022-07-29T18:53:20.217Z,98503.77
2022-07-29T18:55:47.050Z,98512.48
2022-07-29T18:58:13.925Z,98516.33
2022-07-29T19:00:41.057Z,98522.54
2022-07-29T19:03:08.988Z,98527.52
2022-07-29T19:05:35.913Z,98536.05
2022-07-29T19:08:02.911Z,98544.17
2022-07-29T19:10:30.573Z,98544.06
2022-07-29T19:12:58.009Z,98545.68
2022-07-29T19:15:25.257Z,98550.48
2022-07-29T19:17:52.111Z,98549.60
2022-07-29T19:20:18.967Z,98548.55
2022-07-29T19:22:46.194Z,98549.47
2022-07-29T19:25:13.530Z,98548.05
2022-07-29T19:27:42.057Z,98551.30
2022-07-29T19:30:09.875Z,98549.69
2022-07-29T19:32:37.419Z,98553.05
2022-07-29T19:35:21.721Z,98552.71
2022-07-29T19:37:48.421Z,98549.02
2022-07-29T19:40:16.365Z,98543.42
2022-07-29T19:42:44.306Z,98536.21
2022-07-29T19:45:11.853Z,98531.73
2022-07-29T19:47:38.774Z,98526.84
2022-07-29T19:50:06.916Z,98528.43
2022-07-29T19:52:33.779Z,98531.52
2022-07-29T19:55:06.815Z,98533.02
2022-07-29T19:57:40.859Z,98526.86
2022-07-29T20:00:11.474Z,98520.30
2022-07-29T20:02:40.397Z,98521.64
2022-07-29T20:05:08.781Z,98520.02
2022-07-29T20:07:36.726Z,98519.30
2022-07-29T20:10:05.349Z,98527.43
2022-07-29T20:12:32.647Z,98525.20
2022-07-29T20:14:59.858Z,98524.55
2022-07-29T20:17:27.262Z,98523.75
2022-07-29T20:19:54.297Z,98524.10
2022-07-29T20:22:22.789Z,98526.36
2022-07-29T20:24:49.607Z,98523.77
2022-07-29T20:27:16.477Z,98517.25
2022-07-29T20:29:43.353Z,98520.84
2022-07-29T20:32:12.032Z,98514.26
2022-07-29T20:34:41.304Z,98511.92
2022-07-29T20:37:13.463Z,98508.70
2022-07-29T20:39:42.973Z,98511.02
2022-07-29T20:42:09.882Z,98509.58
2022-07-29T20:44:36.959Z,98506.21
2022-07-29T20:47:03.944Z,98507.02
2022-07-29T20:49:31.013Z,98501.64
2022-07-29T20:51:58.098Z,98495.36
2022-07-29T20:54:24.975Z,98495.10
2022-07-29T20:56:51.833Z,98497.19
2022-07-29T20:59:18.917Z,98505.92
2022-07-29T21:01:46.323Z,98509.80
2022-07-29T21:04:13.274Z,98511.11
2022-07-29T21:06:40.059Z,98513.77
2022-07-29T21:09:06.928Z,98507.73
2022-07-29T21:11:44.023Z,98501.41
2022-07-29T21:14:28.696Z,98499.20
2022-07-29T21:16:55.863Z,98497.64
2022-07-29T21:19:22.625Z,98497.29
2022-07-29T21:21:49.963Z,98494.96
2022-07-29T21:24:16.795Z,98489.88
2022-07-29T21:26:47.463Z,98487.79
2022-07-29T21:29:18.586Z,98489.58
2022-07-29T21:31:45.406Z,98490.45
2022-07-29T21:34:12.248Z,98495.13
2022-07-29T21:36:54.224Z,98492.45
2022-07-29T21:39:21.059Z,98496.09
2022-07-29T21:41:48.105Z,98501.54
2022-07-29T21:44:14.907Z,98498.56
2022-07-29T21:46:41.757Z,98494.84
2022-07-29T21:49:08.670Z,98495.75
2022-07-29T21:51:35.507Z,98500.46
2022-07-29T21:54:03.802Z,98499.48
2022-07-29T21:56:31.425Z,98501.91
2022-07-29T21:58:58.483Z,98498.05
2022-07-29T22:01:25.466Z,98496.03
2022-07-29T22:03:52.543Z,98492.63
2022-07-29T22:06:19.786Z,98485.92
2022-07-29T22:08:48.066Z,98485.92
2022-07-29T22:11:15.005Z,98483.12
2022-07-29T22:13:42.027Z,98480.46
2022-07-29T22:16:10.359Z,98478.85
2022-07-29T22:18:37.185Z,98475.46
2022-07-29T22:21:04.589Z,98471.06
2022-07-29T22:23:31.553Z,98475.34
2022-07-29T22:25:58.422Z,98472.35
2022-07-29T22:28:25.251Z,98469.95
2022-07-29T22:30:52.135Z,98461.25
2022-07-29T22:33:18.950Z,98455.53
2022-07-29T22:35:48.486Z,98456.88
2022-07-29T22:38:17.540Z,98462.77
2022-07-29T22:40:44.361Z,98463.20
2022-07-29T22:43:11.192Z,98460.59
2022-07-29T22:45:38.331Z,98456.48
2022-07-29T22:48:06.092Z,98453.16
2022-07-29T22:50:33.093Z,98444.50
2022-07-29T22:52:59.929Z,98436.38
2022-07-29T22:55:26.723Z,98435.34
2022-07-29T22:57:53.512Z,98430.88
2022-07-29T23:00:20.358Z,98432.23
2022-07-29T23:02:47.697Z,98426.31
2022-07-29T23:05:15.932Z,98424.56
2022-07-29T23:07:43.168Z,98421.86
2022-07-29T23:10:10.520Z,98416.52
2022-07-29T23:12:37.511Z,98414.17
2022-07-29T23:15:06.361Z,98410.91
2022-07-29T23:17:36.178Z,98408.07
2022-07-29T23:20:07.724Z,98404.20
2022-07-29T23:22:36.031Z,98400.41
2022-07-29T23:25:05.074Z,98400.98
2022-07-29T23:27:32.333Z,98395.15
2022-07-29T23:29:59.202Z,98391.89
2022-07-29T23:32:25.966Z,98389.60
2022-07-29T23:34:52.771Z,98384.02
2022-07-29T23:37:19.635Z,98387.31
2022-07-29T23:39:46.457Z,98383.58
2022-07-29T23:42:13.296Z,98377.26
2022-07-29T23:44:40.114Z,98379.30
2022-07-29T23:47:06.987Z,98371.95
2022-07-29T23:49:33.868Z,98368.56
2022-07-29T23:52:00.678Z,98369.57
2022-07-29T23:54:27.937Z,98367.96
2022-07-29T23:56:56.866Z,98365.04
2022-07-29T23:59:24.622Z,98360.92
